KOPF Airport (Miami-Opa Locka Executive) Information

FAA: OPF - ICAO: KOPF

KOPF Airport Location

State Florida
County Dade
City Miami
KOPF Airport is 10 miles north of Miami, FL.
Latitude 25-54-26.7000N
Longitude 080-16-41.6000W
Elevation 8ft

KOPF Airport METARs

METAR KOPF 302253Z 11007KT 10SM FEW038 26/20 A2976 RMK AO2 SLP078 T02560200
Altimeter 29.76"
Temperature 25.6°C (78.1°F)
Wind 110° at 7KT
Clouds few at 3,800ft
Visibility 10.0mi
Time observed: 2022-09-30T22:53:00Z

KOPF Airport Details

Status Operational
Activation May 1941
Ownership Public
Usage Public
Chart MIAMI
ATC on-site Yes
Beacon schedule sunset-sunrise
Beacon color clear green

KOPF Airport Contacts

Owner MIAMI-DADE COUNTY
Owner address MIAMI-DADE AVIATION DEPARTMENT, P.O. BOX 025504, MIAMI, FL 33102-5504
Owner phone 305-876-0464
Manager DOUGLAS VONDER CRONE
Manager address 1400 NW 12TH AVENUE, MIAMI, FL 33136
Manager phone 305-689-5575

KOPF Airport (Miami-Opa Locka Executive) Radio Frequencies

KOPF (Airport) Radio Frequencies

UNICOM N/A
Common traffic advisory frequency (CTAF) 134.675